sensor_id;sensor_type;location;lat;lon;timestamp;temperature;humidity
36450;DHT22;22475;51.390;7.180;2022-10-16T00:00:47;16.80;97.10
36450;DHT22;22475;51.390;7.180;2022-10-16T00:03:14;16.80;97.10
36450;DHT22;22475;51.390;7.180;2022-10-16T00:05:42;16.80;97.10
36450;DHT22;22475;51.390;7.180;2022-10-16T00:08:10;16.80;97.00
36450;DHT22;22475;51.390;7.180;2022-10-16T00:10:38;16.80;97.00
36450;DHT22;22475;51.390;7.180;2022-10-16T00:13:07;16.80;97.10
36450;DHT22;22475;51.390;7.180;2022-10-16T00:15:35;16.80;97.10
36450;DHT22;22475;51.390;7.180;2022-10-16T00:18:03;16.80;97.00
36450;DHT22;22475;51.390;7.180;2022-10-16T00:20:30;16.80;97.00
36450;DHT22;22475;51.390;7.180;2022-10-16T00:22:59;16.80;97.00
36450;DHT22;22475;51.390;7.180;2022-10-16T00:25:26;16.80;97.00
36450;DHT22;22475;51.390;7.180;2022-10-16T00:27:53;16.80;96.90
36450;DHT22;22475;51.390;7.180;2022-10-16T00:30:21;16.80;96.90
36450;DHT22;22475;51.390;7.180;2022-10-16T00:32:48;16.80;96.90
36450;DHT22;22475;51.390;7.180;2022-10-16T00:35:15;16.80;96.90
36450;DHT22;22475;51.390;7.180;2022-10-16T00:37:42;16.90;96.90
36450;DHT22;22475;51.390;7.180;2022-10-16T00:40:10;16.90;96.80
36450;DHT22;22475;51.390;7.180;2022-10-16T00:42:37;16.90;96.80
36450;DHT22;22475;51.390;7.180;2022-10-16T00:45:04;16.90;96.70
36450;DHT22;22475;51.390;7.180;2022-10-16T00:47:36;16.90;96.70
36450;DHT22;22475;51.390;7.180;2022-10-16T00:50:08;16.90;96.70
36450;DHT22;22475;51.390;7.180;2022-10-16T00:52:36;16.90;96.70
36450;DHT22;22475;51.390;7.180;2022-10-16T00:55:06;16.90;96.70
36450;DHT22;22475;51.390;7.180;2022-10-16T00:57:34;16.80;96.70
36450;DHT22;22475;51.390;7.180;2022-10-16T01:00:08;16.80;96.70
36450;DHT22;22475;51.390;7.180;2022-10-16T01:02:37;16.80;96.70
36450;DHT22;22475;51.390;7.180;2022-10-16T01:05:04;16.80;96.70
36450;DHT22;22475;51.390;7.180;2022-10-16T01:07:40;16.80;96.70
36450;DHT22;22475;51.390;7.180;2022-10-16T01:10:22;16.80;96.70
36450;DHT22;22475;51.390;7.180;2022-10-16T01:12:57;16.80;96.70
36450;DHT22;22475;51.390;7.180;2022-10-16T01:15:29;16.90;96.70
36450;DHT22;22475;51.390;7.180;2022-10-16T01:18:01;16.80;96.60
36450;DHT22;22475;51.390;7.180;2022-10-16T01:20:32;16.90;96.70
36450;DHT22;22475;51.390;7.180;2022-10-16T01:23:08;16.80;96.60
36450;DHT22;22475;51.390;7.180;2022-10-16T01:25:53;16.80;96.60
36450;DHT22;22475;51.390;7.180;2022-10-16T01:28:27;16.80;96.60
36450;DHT22;22475;51.390;7.180;2022-10-16T01:30:58;16.80;96.60
36450;DHT22;22475;51.390;7.180;2022-10-16T01:33:30;16.80;96.60
36450;DHT22;22475;51.390;7.180;2022-10-16T01:36:06;16.80;96.60
36450;DHT22;22475;51.390;7.180;2022-10-16T01:38:36;16.80;96.60
36450;DHT22;22475;51.390;7.180;2022-10-16T01:41:14;16.80;96.60
36450;DHT22;22475;51.390;7.180;2022-10-16T01:43:46;16.70;96.60
36450;DHT22;22475;51.390;7.180;2022-10-16T01:46:17;16.80;96.60
36450;DHT22;22475;51.390;7.180;2022-10-16T01:48:46;16.70;96.60
36450;DHT22;22475;51.390;7.180;2022-10-16T01:51:15;16.70;96.60
36450;DHT22;22475;51.390;7.180;2022-10-16T01:53:50;16.80;96.60
36450;DHT22;22475;51.390;7.180;2022-10-16T01:56:19;16.70;96.60
36450;DHT22;22475;51.390;7.180;2022-10-16T01:58:52;16.70;96.60
36450;DHT22;22475;51.390;7.180;2022-10-16T02:01:23;16.80;96.70
36450;DHT22;22475;51.390;7.180;2022-10-16T02:03:54;16.70;96.70
36450;DHT22;22475;51.390;7.180;2022-10-16T02:06:23;16.80;96.70
36450;DHT22;22475;51.390;7.180;2022-10-16T02:08:51;16.80;96.70
36450;DHT22;22475;51.390;7.180;2022-10-16T02:11:18;16.80;96.70
36450;DHT22;22475;51.390;7.180;2022-10-16T02:13:50;16.80;96.70
36450;DHT22;22475;51.390;7.180;2022-10-16T02:16:18;16.80;96.60
36450;DHT22;22475;51.390;7.180;2022-10-16T02:18:45;16.80;96.60
36450;DHT22;22475;51.390;7.180;2022-10-16T02:21:16;16.80;96.50
36450;DHT22;22475;51.390;7.180;2022-10-16T02:23:51;16.80;96.60
36450;DHT22;22475;51.390;7.180;2022-10-16T02:26:26;16.80;96.60
36450;DHT22;22475;51.390;7.180;2022-10-16T02:29:00;16.80;96.60
36450;DHT22;22475;51.390;7.180;2022-10-16T02:31:32;16.80;96.50
36450;DHT22;22475;51.390;7.180;2022-10-16T02:34:01;16.80;96.50
36450;DHT22;22475;51.390;7.180;2022-10-16T02:36:31;16.80;96.40
36450;DHT22;22475;51.390;7.180;2022-10-16T02:38:58;16.80;96.50
36450;DHT22;22475;51.390;7.180;2022-10-16T02:41:26;16.80;96.80
36450;DHT22;22475;51.390;7.180;2022-10-16T02:43:53;16.80;96.50
36450;DHT22;22475;51.390;7.180;2022-10-16T02:46:22;16.80;96.50
36450;DHT22;22475;51.390;7.180;2022-10-16T02:48:49;16.80;96.40
36450;DHT22;22475;51.390;7.180;2022-10-16T02:51:15;16.70;96.40
36450;DHT22;22475;51.390;7.180;2022-10-16T02:53:42;16.70;96.40
36450;DHT22;22475;51.390;7.180;2022-10-16T02:56:09;16.70;96.40
36450;DHT22;22475;51.390;7.180;2022-10-16T02:58:36;16.70;96.30
36450;DHT22;22475;51.390;7.180;2022-10-16T03:01:03;16.70;96.30
36450;DHT22;22475;51.390;7.180;2022-10-16T03:03:31;16.70;96.30
36450;DHT22;22475;51.390;7.180;2022-10-16T03:05:58;16.70;96.40
36450;DHT22;22475;51.390;7.180;2022-10-16T03:08:25;16.70;96.40
36450;DHT22;22475;51.390;7.180;2022-10-16T03:10:52;16.70;96.40
36450;DHT22;22475;51.390;7.180;2022-10-16T03:13:19;16.70;96.50
36450;DHT22;22475;51.390;7.180;2022-10-16T03:15:47;16.70;96.50
36450;DHT22;22475;51.390;7.180;2022-10-16T03:18:14;16.70;96.50
36450;DHT22;22475;51.390;7.180;2022-10-16T03:20:42;16.70;96.40
36450;DHT22;22475;51.390;7.180;2022-10-16T03:23:09;16.70;96.40
36450;DHT22;22475;51.390;7.180;2022-10-16T03:25:36;16.70;96.40
36450;DHT22;22475;51.390;7.180;2022-10-16T03:28:04;16.70;96.40
36450;DHT22;22475;51.390;7.180;2022-10-16T03:30:30;16.70;96.40
36450;DHT22;22475;51.390;7.180;2022-10-16T03:32:57;16.70;96.40
36450;DHT22;22475;51.390;7.180;2022-10-16T03:35:24;16.70;96.40
36450;DHT22;22475;51.390;7.180;2022-10-16T03:37:53;16.70;96.40
36450;DHT22;22475;51.390;7.180;2022-10-16T03:40:20;16.70;96.30
36450;DHT22;22475;51.390;7.180;2022-10-16T03:42:47;16.70;96.30
36450;DHT22;22475;51.390;7.180;2022-10-16T03:45:14;16.70;96.30
36450;DHT22;22475;51.390;7.180;2022-10-16T03:47:41;16.70;96.30
36450;DHT22;22475;51.390;7.180;2022-10-16T03:50:08;16.70;96.30
36450;DHT22;22475;51.390;7.180;2022-10-16T03:52:35;16.70;96.30
36450;DHT22;22475;51.390;7.180;2022-10-16T03:55:04;16.70;96.30
36450;DHT22;22475;51.390;7.180;2022-10-16T03:57:31;16.70;96.30
36450;DHT22;22475;51.390;7.180;2022-10-16T03:59:58;16.70;96.30
36450;DHT22;22475;51.390;7.180;2022-10-16T04:02:25;16.70;96.30
36450;DHT22;22475;51.390;7.180;2022-10-16T04:04:52;16.70;96.20
36450;DHT22;22475;51.390;7.180;2022-10-16T04:07:19;16.60;96.10
36450;DHT22;22475;51.390;7.180;2022-10-16T04:09:46;16.60;96.10
36450;DHT22;22475;51.390;7.180;2022-10-16T04:12:14;16.60;96.10
36450;DHT22;22475;51.390;7.180;2022-10-16T04:14:41;16.60;96.10
36450;DHT22;22475;51.390;7.180;2022-10-16T04:17:08;16.60;96.10
36450;DHT22;22475;51.390;7.180;2022-10-16T04:19:34;16.60;96.10
36450;DHT22;22475;51.390;7.180;2022-10-16T04:22:01;16.60;96.10
36450;DHT22;22475;51.390;7.180;2022-10-16T04:24:28;16.60;96.10
36450;DHT22;22475;51.390;7.180;2022-10-16T04:26:55;16.60;96.10
36450;DHT22;22475;51.390;7.180;2022-10-16T04:29:23;16.60;96.10
36450;DHT22;22475;51.390;7.180;2022-10-16T04:31:50;16.60;96.40
36450;DHT22;22475;51.390;7.180;2022-10-16T04:34:18;16.60;96.10
36450;DHT22;22475;51.390;7.180;2022-10-16T04:36:47;16.60;96.50
36450;DHT22;22475;51.390;7.180;2022-10-16T04:39:14;16.60;96.10
36450;DHT22;22475;51.390;7.180;2022-10-16T04:41:41;16.60;96.00
36450;DHT22;22475;51.390;7.180;2022-10-16T04:44:08;16.60;96.00
36450;DHT22;22475;51.390;7.180;2022-10-16T04:46:36;16.60;96.00
36450;DHT22;22475;51.390;7.180;2022-10-16T04:49:03;16.60;96.00
36450;DHT22;22475;51.390;7.180;2022-10-16T04:51:31;16.60;96.00
36450;DHT22;22475;51.390;7.180;2022-10-16T04:53:58;16.60;96.00
36450;DHT22;22475;51.390;7.180;2022-10-16T04:56:25;16.60;95.90
36450;DHT22;22475;51.390;7.180;2022-10-16T04:58:52;16.60;95.90
36450;DHT22;22475;51.390;7.180;2022-10-16T05:01:19;16.60;95.90
36450;DHT22;22475;51.390;7.180;2022-10-16T05:03:47;16.60;95.80
36450;DHT22;22475;51.390;7.180;2022-10-16T05:06:14;16.50;95.80
36450;DHT22;22475;51.390;7.180;2022-10-16T05:08:41;16.50;95.90
36450;DHT22;22475;51.390;7.180;2022-10-16T05:11:08;16.50;95.90
36450;DHT22;22475;51.390;7.180;2022-10-16T05:13:35;16.60;96.00
36450;DHT22;22475;51.390;7.180;2022-10-16T05:16:02;16.50;95.90
36450;DHT22;22475;51.390;7.180;2022-10-16T05:18:29;16.50;95.90
36450;DHT22;22475;51.390;7.180;2022-10-16T05:20:58;16.50;95.90
36450;DHT22;22475;51.390;7.180;2022-10-16T05:23:25;16.50;95.90
36450;DHT22;22475;51.390;7.180;2022-10-16T05:25:53;16.60;95.80
36450;DHT22;22475;51.390;7.180;2022-10-16T05:28:20;16.50;95.80
36450;DHT22;22475;51.390;7.180;2022-10-16T05:30:47;16.50;95.80
36450;DHT22;22475;51.390;7.180;2022-10-16T05:33:14;16.50;95.80
36450;DHT22;22475;51.390;7.180;2022-10-16T05:35:41;16.50;95.80
36450;DHT22;22475;51.390;7.180;2022-10-16T05:38:09;16.50;95.80
36450;DHT22;22475;51.390;7.180;2022-10-16T05:40:36;16.50;95.80
36450;DHT22;22475;51.390;7.180;2022-10-16T05:43:03;16.50;95.80
36450;DHT22;22475;51.390;7.180;2022-10-16T05:45:30;16.50;95.80
36450;DHT22;22475;51.390;7.180;2022-10-16T05:47:57;16.50;95.80
36450;DHT22;22475;51.390;7.180;2022-10-16T05:50:24;16.50;95.70
36450;DHT22;22475;51.390;7.180;2022-10-16T05:52:51;16.50;95.80
36450;DHT22;22475;51.390;7.180;2022-10-16T05:55:19;16.50;95.70
36450;DHT22;22475;51.390;7.180;2022-10-16T05:57:46;16.50;95.80
36450;DHT22;22475;51.390;7.180;2022-10-16T06:00:13;16.40;95.80
36450;DHT22;22475;51.390;7.180;2022-10-16T06:02:40;16.50;95.90
36450;DHT22;22475;51.390;7.180;2022-10-16T06:05:07;16.50;95.90
36450;DHT22;22475;51.390;7.180;2022-10-16T06:07:34;16.40;95.90
36450;DHT22;22475;51.390;7.180;2022-10-16T06:10:03;16.50;96.00
36450;DHT22;22475;51.390;7.180;2022-10-16T06:12:31;16.50;95.90
36450;DHT22;22475;51.390;7.180;2022-10-16T06:14:58;16.50;95.90
36450;DHT22;22475;51.390;7.180;2022-10-16T06:17:25;16.50;95.80
36450;DHT22;22475;51.390;7.180;2022-10-16T06:19:52;16.50;95.80
36450;DHT22;22475;51.390;7.180;2022-10-16T06:22:19;16.50;95.80
36450;DHT22;22475;51.390;7.180;2022-10-16T06:24:46;16.50;95.80
36450;DHT22;22475;51.390;7.180;2022-10-16T06:27:13;16.50;95.80
36450;DHT22;22475;51.390;7.180;2022-10-16T06:29:41;16.50;95.70
36450;DHT22;22475;51.390;7.180;2022-10-16T06:32:09;16.50;95.70
36450;DHT22;22475;51.390;7.180;2022-10-16T06:34:36;16.50;95.80
36450;DHT22;22475;51.390;7.180;2022-10-16T06:37:02;16.40;95.70
36450;DHT22;22475;51.390;7.180;2022-10-16T06:39:29;16.50;95.80
36450;DHT22;22475;51.390;7.180;2022-10-16T06:41:56;16.50;95.80
36450;DHT22;22475;51.390;7.180;2022-10-16T06:44:23;16.40;95.80
36450;DHT22;22475;51.390;7.180;2022-10-16T06:46:51;16.50;95.80
36450;DHT22;22475;51.390;7.180;2022-10-16T06:49:19;16.40;95.80
36450;DHT22;22475;51.390;7.180;2022-10-16T06:51:48;16.40;95.80
36450;DHT22;22475;51.390;7.180;2022-10-16T06:54:15;16.40;96.10
36450;DHT22;22475;51.390;7.180;2022-10-16T06:56:43;16.40;95.80
36450;DHT22;22475;51.390;7.180;2022-10-16T06:59:10;16.40;95.80
36450;DHT22;22475;51.390;7.180;2022-10-16T07:01:37;16.50;95.80
36450;DHT22;22475;51.390;7.180;2022-10-16T07:04:05;16.50;95.80
36450;DHT22;22475;51.390;7.180;2022-10-16T07:06:33;16.40;95.80
36450;DHT22;22475;51.390;7.180;2022-10-16T07:09:03;16.40;95.80
36450;DHT22;22475;51.390;7.180;2022-10-16T07:11:30;16.50;95.80
36450;DHT22;22475;51.390;7.180;2022-10-16T07:13:58;16.50;95.80
36450;DHT22;22475;51.390;7.180;2022-10-16T07:16:27;16.50;95.80
36450;DHT22;22475;51.390;7.180;2022-10-16T07:18:55;16.50;95.80
36450;DHT22;22475;51.390;7.180;2022-10-16T07:21:26;16.50;95.80
36450;DHT22;22475;51.390;7.180;2022-10-16T07:23:55;16.50;95.80
36450;DHT22;22475;51.390;7.180;2022-10-16T07:26:24;16.50;95.90
36450;DHT22;22475;51.390;7.180;2022-10-16T07:28:51;16.50;95.80
36450;DHT22;22475;51.390;7.180;2022-10-16T07:31:19;16.50;95.90
36450;DHT22;22475;51.390;7.180;2022-10-16T07:33:47;16.50;95.80
36450;DHT22;22475;51.390;7.180;2022-10-16T07:36:14;16.50;95.80
36450;DHT22;22475;51.390;7.180;2022-10-16T07:38:43;16.50;95.80
36450;DHT22;22475;51.390;7.180;2022-10-16T07:41:13;16.50;95.80
36450;DHT22;22475;51.390;7.180;2022-10-16T07:43:44;16.50;95.80
36450;DHT22;22475;51.390;7.180;2022-10-16T07:46:12;16.50;95.80
36450;DHT22;22475;51.390;7.180;2022-10-16T07:48:40;16.50;95.80
36450;DHT22;22475;51.390;7.180;2022-10-16T07:51:11;16.50;95.80
36450;DHT22;22475;51.390;7.180;2022-10-16T07:53:39;16.50;95.90
36450;DHT22;22475;51.390;7.180;2022-10-16T07:56:08;16.50;95.90
36450;DHT22;22475;51.390;7.180;2022-10-16T07:58:35;16.50;95.90
36450;DHT22;22475;51.390;7.180;2022-10-16T08:01:04;16.50;95.90
36450;DHT22;22475;51.390;7.180;2022-10-16T08:03:31;16.50;95.90
36450;DHT22;22475;51.390;7.180;2022-10-16T08:05:58;16.50;96.00
36450;DHT22;22475;51.390;7.180;2022-10-16T08:08:26;16.50;96.00
36450;DHT22;22475;51.390;7.180;2022-10-16T08:10:53;16.60;96.00
36450;DHT22;22475;51.390;7.180;2022-10-16T08:13:22;16.60;96.00
36450;DHT22;22475;51.390;7.180;2022-10-16T08:15:49;16.60;96.00
36450;DHT22;22475;51.390;7.180;2022-10-16T08:18:16;16.60;96.00
36450;DHT22;22475;51.390;7.180;2022-10-16T08:20:43;16.60;96.00
36450;DHT22;22475;51.390;7.180;2022-10-16T08:23:11;16.70;96.10
36450;DHT22;22475;51.390;7.180;2022-10-16T08:25:39;16.70;96.10
36450;DHT22;22475;51.390;7.180;2022-10-16T08:28:06;16.70;96.10
36450;DHT22;22475;51.390;7.180;2022-10-16T08:30:35;16.70;96.40
36450;DHT22;22475;51.390;7.180;2022-10-16T08:33:03;16.70;96.10
36450;DHT22;22475;51.390;7.180;2022-10-16T08:35:30;16.70;96.40
36450;DHT22;22475;51.390;7.180;2022-10-16T08:37:57;16.70;96.00
36450;DHT22;22475;51.390;7.180;2022-10-16T08:40:25;16.70;96.00
36450;DHT22;22475;51.390;7.180;2022-10-16T08:43:18;16.70;96.00
36450;DHT22;22475;51.390;7.180;2022-10-16T08:48:44;16.70;95.80
36450;DHT22;22475;51.390;7.180;2022-10-16T08:51:18;16.70;95.80
36450;DHT22;22475;51.390;7.180;2022-10-16T08:53:51;16.70;95.80
36450;DHT22;22475;51.390;7.180;2022-10-16T08:56:19;16.70;95.70
36450;DHT22;22475;51.390;7.180;2022-10-16T08:58:47;16.70;95.70
36450;DHT22;22475;51.390;7.180;2022-10-16T09:01:17;16.70;95.60
36450;DHT22;22475;51.390;7.180;2022-10-16T09:04:04;16.80;95.60
36450;DHT22;22475;51.390;7.180;2022-10-16T09:06:44;16.70;95.50
36450;DHT22;22475;51.390;7.180;2022-10-16T09:09:39;16.80;95.50
36450;DHT22;22475;51.390;7.180;2022-10-16T09:12:12;16.80;95.50
36450;DHT22;22475;51.390;7.180;2022-10-16T09:14:51;16.80;95.50
36450;DHT22;22475;51.390;7.180;2022-10-16T09:17:34;16.80;95.40
36450;DHT22;22475;51.390;7.180;2022-10-16T09:20:20;16.80;95.40
36450;DHT22;22475;51.390;7.180;2022-10-16T09:22:51;16.80;95.30
36450;DHT22;22475;51.390;7.180;2022-10-16T09:25:21;16.80;95.30
36450;DHT22;22475;51.390;7.180;2022-10-16T09:27:52;16.80;95.30
36450;DHT22;22475;51.390;7.180;2022-10-16T09:30:20;16.80;95.30
36450;DHT22;22475;51.390;7.180;2022-10-16T09:32:52;16.80;95.20
36450;DHT22;22475;51.390;7.180;2022-10-16T09:35:22;16.80;95.20
36450;DHT22;22475;51.390;7.180;2022-10-16T09:37:54;16.80;95.20
36450;DHT22;22475;51.390;7.180;2022-10-16T09:40:26;16.90;95.20
36450;DHT22;22475;51.390;7.180;2022-10-16T09:43:01;16.80;95.20
36450;DHT22;22475;51.390;7.180;2022-10-16T09:45:29;16.80;95.20
36450;DHT22;22475;51.390;7.180;2022-10-16T09:47:57;16.90;95.20
36450;DHT22;22475;51.390;7.180;2022-10-16T09:50:26;16.90;95.20
36450;DHT22;22475;51.390;7.180;2022-10-16T09:53:04;16.90;95.20
36450;DHT22;22475;51.390;7.180;2022-10-16T09:55:31;16.90;95.10
36450;DHT22;22475;51.390;7.180;2022-10-16T09:57:58;16.90;95.10
36450;DHT22;22475;51.390;7.180;2022-10-16T10:00:25;16.90;95.10
36450;DHT22;22475;51.390;7.180;2022-10-16T10:02:52;16.90;95.10
36450;DHT22;22475;51.390;7.180;2022-10-16T10:05:24;16.90;95.10
36450;DHT22;22475;51.390;7.180;2022-10-16T10:07:56;16.90;95.00
36450;DHT22;22475;51.390;7.180;2022-10-16T10:10:25;16.90;95.00
36450;DHT22;22475;51.390;7.180;2022-10-16T10:12:52;16.90;95.00
36450;DHT22;22475;51.390;7.180;2022-10-16T10:15:20;16.90;94.90
36450;DHT22;22475;51.390;7.180;2022-10-16T10:17:51;16.90;94.90
36450;DHT22;22475;51.390;7.180;2022-10-16T10:20:28;16.90;94.90
36450;DHT22;22475;51.390;7.180;2022-10-16T10:22:55;17.00;94.90
36450;DHT22;22475;51.390;7.180;2022-10-16T10:25:31;17.00;94.90
36450;DHT22;22475;51.390;7.180;2022-10-16T10:28:10;17.00;94.80
36450;DHT22;22475;51.390;7.180;2022-10-16T10:30:47;17.00;94.80
36450;DHT22;22475;51.390;7.180;2022-10-16T10:33:23;17.00;94.70
36450;DHT22;22475;51.390;7.180;2022-10-16T10:35:57;17.00;94.70
36450;DHT22;22475;51.390;7.180;2022-10-16T10:38:37;17.00;94.70
36450;DHT22;22475;51.390;7.180;2022-10-16T10:41:17;17.00;94.60
36450;DHT22;22475;51.390;7.180;2022-10-16T10:43:56;17.00;94.50
36450;DHT22;22475;51.390;7.180;2022-10-16T10:46:34;17.00;94.50
36450;DHT22;22475;51.390;7.180;2022-10-16T10:49:19;17.00;94.40
36450;DHT22;22475;51.390;7.180;2022-10-16T10:52:00;17.00;94.40
36450;DHT22;22475;51.390;7.180;2022-10-16T10:54:35;17.10;94.40
36450;DHT22;22475;51.390;7.180;2022-10-16T10:57:10;17.10;94.40
36450;DHT22;22475;51.390;7.180;2022-10-16T11:00:01;17.10;94.30
36450;DHT22;22475;51.390;7.180;2022-10-16T11:02:37;17.10;94.30
36450;DHT22;22475;51.390;7.180;2022-10-16T11:05:31;17.10;94.30
36450;DHT22;22475;51.390;7.180;2022-10-16T11:08:07;17.10;94.30
36450;DHT22;22475;51.390;7.180;2022-10-16T11:10:42;17.10;94.30
36450;DHT22;22475;51.390;7.180;2022-10-16T11:13:21;17.10;94.30
36450;DHT22;22475;51.390;7.180;2022-10-16T11:15:52;17.20;94.30
36450;DHT22;22475;51.390;7.180;2022-10-16T11:18:24;17.10;94.20
36450;DHT22;22475;51.390;7.180;2022-10-16T11:20:56;17.10;94.20
36450;DHT22;22475;51.390;7.180;2022-10-16T11:23:28;17.10;94.20
36450;DHT22;22475;51.390;7.180;2022-10-16T11:25:59;17.10;94.20
36450;DHT22;22475;51.390;7.180;2022-10-16T11:28:33;17.10;94.10
36450;DHT22;22475;51.390;7.180;2022-10-16T11:31:07;17.10;94.00
36450;DHT22;22475;51.390;7.180;2022-10-16T11:33:40;17.20;94.00
36450;DHT22;22475;51.390;7.180;2022-10-16T11:36:12;17.10;93.90
36450;DHT22;22475;51.390;7.180;2022-10-16T11:38:47;17.10;93.90
36450;DHT22;22475;51.390;7.180;2022-10-16T11:41:24;17.20;93.90
36450;DHT22;22475;51.390;7.180;2022-10-16T11:44:12;17.20;93.90
36450;DHT22;22475;51.390;7.180;2022-10-16T11:46:46;17.10;93.90
36450;DHT22;22475;51.390;7.180;2022-10-16T11:49:21;17.10;93.90
36450;DHT22;22475;51.390;7.180;2022-10-16T11:51:56;17.10;93.90
36450;DHT22;22475;51.390;7.180;2022-10-16T11:54:35;17.10;93.80
36450;DHT22;22475;51.390;7.180;2022-10-16T11:57:11;17.10;93.80
36450;DHT22;22475;51.390;7.180;2022-10-16T11:59:44;17.10;93.80
36450;DHT22;22475;51.390;7.180;2022-10-16T12:02:31;17.10;93.70
36450;DHT22;22475;51.390;7.180;2022-10-16T12:05:09;17.10;93.70
36450;DHT22;22475;51.390;7.180;2022-10-16T12:07:49;17.10;93.70
36450;DHT22;22475;51.390;7.180;2022-10-16T12:10:22;17.20;93.70
36450;DHT22;22475;51.390;7.180;2022-10-16T12:12:53;17.10;93.60
36450;DHT22;22475;51.390;7.180;2022-10-16T12:15:25;17.20;93.70
36450;DHT22;22475;51.390;7.180;2022-10-16T12:17:53;17.20;93.60
36450;DHT22;22475;51.390;7.180;2022-10-16T12:20:26;17.20;93.60
36450;DHT22;22475;51.390;7.180;2022-10-16T12:22:55;17.20;93.60
36450;DHT22;22475;51.390;7.180;2022-10-16T12:25:26;17.20;93.60
36450;DHT22;22475;51.390;7.180;2022-10-16T12:28:01;17.20;93.50
36450;DHT22;22475;51.390;7.180;2022-10-16T12:30:31;17.20;93.50
36450;DHT22;22475;51.390;7.180;2022-10-16T12:33:00;17.20;93.50
36450;DHT22;22475;51.390;7.180;2022-10-16T12:35:30;17.20;93.40
36450;DHT22;22475;51.390;7.180;2022-10-16T12:38:14;17.20;93.40
36450;DHT22;22475;51.390;7.180;2022-10-16T12:40:44;17.20;93.40
36450;DHT22;22475;51.390;7.180;2022-10-16T12:43:25;17.20;93.70
36450;DHT22;22475;51.390;7.180;2022-10-16T12:46:04;17.20;93.40
36450;DHT22;22475;51.390;7.180;2022-10-16T12:48:32;17.20;93.40
36450;DHT22;22475;51.390;7.180;2022-10-16T12:51:10;17.30;93.40
36450;DHT22;22475;51.390;7.180;2022-10-16T12:53:38;17.30;93.30
36450;DHT22;22475;51.390;7.180;2022-10-16T12:56:18;17.30;93.40
36450;DHT22;22475;51.390;7.180;2022-10-16T12:58:55;17.30;93.30
36450;DHT22;22475;51.390;7.180;2022-10-16T13:01:48;17.30;93.20
36450;DHT22;22475;51.390;7.180;2022-10-16T13:04:29;17.30;93.10
36450;DHT22;22475;51.390;7.180;2022-10-16T13:07:09;17.30;93.10
36450;DHT22;22475;51.390;7.180;2022-10-16T13:09:50;17.30;93.10
36450;DHT22;22475;51.390;7.180;2022-10-16T13:12:36;17.30;93.10
36450;DHT22;22475;51.390;7.180;2022-10-16T13:15:28;17.30;93.00
36450;DHT22;22475;51.390;7.180;2022-10-16T13:18:04;17.30;93.00
36450;DHT22;22475;51.390;7.180;2022-10-16T13:20:36;17.30;93.10
36450;DHT22;22475;51.390;7.180;2022-10-16T13:23:14;17.30;93.10
36450;DHT22;22475;51.390;7.180;2022-10-16T13:25:51;17.30;93.10
36450;DHT22;22475;51.390;7.180;2022-10-16T13:28:31;17.30;93.10
36450;DHT22;22475;51.390;7.180;2022-10-16T13:30:59;17.30;93.10
36450;DHT22;22475;51.390;7.180;2022-10-16T13:33:32;17.30;93.00
36450;DHT22;22475;51.390;7.180;2022-10-16T13:35:59;17.30;93.00
36450;DHT22;22475;51.390;7.180;2022-10-16T13:38:29;17.30;93.30
36450;DHT22;22475;51.390;7.180;2022-10-16T13:40:58;17.30;93.00
36450;DHT22;22475;51.390;7.180;2022-10-16T13:43:31;17.30;93.00
36450;DHT22;22475;51.390;7.180;2022-10-16T13:46:01;17.30;93.00
36450;DHT22;22475;51.390;7.180;2022-10-16T13:48:29;17.30;93.00
36450;DHT22;22475;51.390;7.180;2022-10-16T13:51:04;17.40;93.00
36450;DHT22;22475;51.390;7.180;2022-10-16T13:53:33;17.40;92.90
36450;DHT22;22475;51.390;7.180;2022-10-16T13:56:03;17.40;92.90
36450;DHT22;22475;51.390;7.180;2022-10-16T13:58:32;17.40;92.90
36450;DHT22;22475;51.390;7.180;2022-10-16T14:01:02;17.30;92.80
36450;DHT22;22475;51.390;7.180;2022-10-16T14:03:31;17.40;92.80
36450;DHT22;22475;51.390;7.180;2022-10-16T14:06:01;17.40;92.80
36450;DHT22;22475;51.390;7.180;2022-10-16T14:08:29;17.40;92.70
36450;DHT22;22475;51.390;7.180;2022-10-16T14:10:58;17.40;92.70
36450;DHT22;22475;51.390;7.180;2022-10-16T14:13:32;17.40;92.70
36450;DHT22;22475;51.390;7.180;2022-10-16T14:16:05;17.40;92.70
36450;DHT22;22475;51.390;7.180;2022-10-16T14:18:33;17.40;92.80
36450;DHT22;22475;51.390;7.180;2022-10-16T14:21:06;17.40;92.80
36450;DHT22;22475;51.390;7.180;2022-10-16T14:23:35;17.40;93.10
36450;DHT22;22475;51.390;7.180;2022-10-16T14:26:15;17.40;92.80
36450;DHT22;22475;51.390;7.180;2022-10-16T14:28:44;17.40;92.80
36450;DHT22;22475;51.390;7.180;2022-10-16T14:31:29;17.40;92.80
36450;DHT22;22475;51.390;7.180;2022-10-16T14:33:59;17.40;92.80
36450;DHT22;22475;51.390;7.180;2022-10-16T14:36:27;17.40;92.90
36450;DHT22;22475;51.390;7.180;2022-10-16T14:39:01;17.30;92.90
36450;DHT22;22475;51.390;7.180;2022-10-16T14:41:31;17.30;92.90
36450;DHT22;22475;51.390;7.180;2022-10-16T14:44:03;17.40;93.00
36450;DHT22;22475;51.390;7.180;2022-10-16T14:46:34;17.30;93.00
36450;DHT22;22475;51.390;7.180;2022-10-16T14:49:03;17.40;93.00
36450;DHT22;22475;51.390;7.180;2022-10-16T14:51:30;17.30;93.10
36450;DHT22;22475;51.390;7.180;2022-10-16T14:53:57;17.40;93.10
36450;DHT22;22475;51.390;7.180;2022-10-16T14:56:26;17.30;93.10
36450;DHT22;22475;51.390;7.180;2022-10-16T14:58:55;17.30;93.20
36450;DHT22;22475;51.390;7.180;2022-10-16T15:01:23;17.30;93.20
36450;DHT22;22475;51.390;7.180;2022-10-16T15:03:51;17.30;93.30
36450;DHT22;22475;51.390;7.180;2022-10-16T15:06:20;17.30;93.40
36450;DHT22;22475;51.390;7.180;2022-10-16T15:08:47;17.30;93.50
36450;DHT22;22475;51.390;7.180;2022-10-16T15:11:15;17.30;93.50
36450;DHT22;22475;51.390;7.180;2022-10-16T15:13:43;17.30;93.60
36450;DHT22;22475;51.390;7.180;2022-10-16T15:16:11;17.30;93.60
36450;DHT22;22475;51.390;7.180;2022-10-16T15:18:40;17.30;93.70
36450;DHT22;22475;51.390;7.180;2022-10-16T15:21:07;17.30;93.70
36450;DHT22;22475;51.390;7.180;2022-10-16T15:23:34;17.30;93.80
36450;DHT22;22475;51.390;7.180;2022-10-16T15:26:01;17.30;93.80
36450;DHT22;22475;51.390;7.180;2022-10-16T15:28:28;17.30;93.90
36450;DHT22;22475;51.390;7.180;2022-10-16T15:30:56;17.30;93.90
36450;DHT22;22475;51.390;7.180;2022-10-16T15:33:24;17.30;94.00
36450;DHT22;22475;51.390;7.180;2022-10-16T15:35:54;17.30;94.40
36450;DHT22;22475;51.390;7.180;2022-10-16T15:38:22;17.30;94.30
36450;DHT22;22475;51.390;7.180;2022-10-16T15:40:50;17.30;94.10
36450;DHT22;22475;51.390;7.180;2022-10-16T15:43:17;17.30;94.20
36450;DHT22;22475;51.390;7.180;2022-10-16T15:45:44;17.30;94.30
36450;DHT22;22475;51.390;7.180;2022-10-16T15:48:12;17.30;94.30
36450;DHT22;22475;51.390;7.180;2022-10-16T15:50:39;17.30;94.30
36450;DHT22;22475;51.390;7.180;2022-10-16T15:53:09;17.30;94.40